McMullen, Alabama
Current Conditions -  °F | °C
As of 11:06 PM on Friday 19 Dec 2014 (Local Time) from KTCL Reporting Station
Haze Haze  
Wind Chill: 38°   Ceiling: 1400
Heat Index: 43°   Visibility: 6mi
Dew Point: 41°   Wind: 8mph
Humidity: 93%   Direction: 340°NNW
Pressure: 30.2"   Gusts: NA
Location:  33.1204°N, 88.1617°W
Report Text: KTCL 200506Z AUTO 34007KT 6SM BR BKN014 BKN070 OVC120 06/05 A3020 RMK AO2 RAE0455 P0000 T00610050
Loading
Personal Weather Stations






























Interactive Weather Map New forecast layout! Learn more

10-Day Weather Forecast

Advertisements
Track Severe Weather on mobile